Havre City County Airport
KHVR : rendu visible

Aérodrome :











RETROUVEZ-NOUS SUR...

 
LOGIN :

S'inscrire | Disclaimer

   EN    FR    IT 

 









Légende :    VFR   VFR Marginal   IFR   IFR Intensif   IFR Très Intensif
Visi : 
Plafond : 
>= 8 km
>= 3000ft
5 à 8 km
1000 à 3000 ft
1500m à 5 km
500 à 1000 ft
800 à 1500m
200 à 500 ft
< 800m
< 200 ft
Symboles :   Orages  Brouillard  Fortes neiges  Fortes précipitations  Vent > 20 kt






- Altitude de l'aérodrome : 2591 ft


KHVR - Havre City County

DERNIER METAR :
  • 150716Z AUTO 08006KT 1/4SM FZFG VV002 M04/M04 A2996 RMK AO2 I1000 T10391039 $

METARs EXPIRÉS :
  • 150705Z AUTO 07005KT 3/4SM BR OVC002 M04/M04 A2997 RMK AO2 T10391044 $
  • 150638Z AUTO 11004KT 8SM BKN003 M04/M05 A2997 RMK AO2 T10441050 $
  • 150629Z AUTO 12004KT 8SM SCT003 M04/M05 A2997 RMK AO2 T10441050 $
  • 150553Z AUTO 06003KT 10SM CLR M04/M04 A2997 RMK AO2 SLP179 T10391044 11006 21039 56002 $
  • 150453Z AUTO 08005KT 10SM CLR M03/M04 A2997 RMK AO2 SLP180 T10331044 $

TAF KHVR
Valide du 15 à 07h jusqu'au 16 à 06h UTC


150659Z 1507/1606 VRB05KT 6SM BR BKN002
TEMPO 1510/1514 1/2SM FG OVC002
FM151800 23009KT P6SM SCT080 BKN120
FM160300 24011G22KT P6SM VCSH SCT050 BKN100



MET'MAP, la Météo Aéronautique d'un coup d'oeil ! - Copyright ORBIFLY Décembre 2007 - Disclaimer

ORBIFLY MET'MAP TEAM :

Programmation & Développement : Alexandra Zaïnal
Conception & Développement : Baudouin d'Aumeries
Co-Programmation & Développement : Marc-Olivier Méhu
Soutien technique & logistique : Manuel Goepfert

Contact : metmap@orbifly.com




SOURCES & CREDITS :

   NOAA       Earth
Advisory